Time;durP1;ratioP1;P1;durP2;ratioP2;P2;SDS_P1;SDS_P2;PMS_P1;PMS_P2;Temp;Humidity;BMP_temperature;BMP_pressure;BME280_temperature;BME280_humidity;BME280_pressure;Samples;Min_cycle;Max_cycle;Signal;HPM_P1;HPM_P2
2021/01/24 00:01:27;;;;;;;25.15;10.98;;;;;;;;;;4975837;28;20030;-64
2021/01/24 00:03:54;;;;;;;21.25;9.15;;;;;;;;;;4975460;28;20027;-62
2021/01/24 00:06:20;;;;;;;18.77;8.05;;;;;;;;;;4974944;28;20057;-63
2021/01/24 00:08:46;;;;;;;22.13;10.05;;;;;;;;;;4975436;28;20034;-62
2021/01/24 00:11:12;;;;;;;21.20;9.32;;;;;;;;;;4975829;28;20022;-64
2021/01/24 00:13:38;;;;;;;23.52;9.90;;;;;;;;;;4975054;28;20023;-63
2021/01/24 00:16:04;;;;;;;22.67;10.10;;;;;;;;;;4975089;28;20027;-63
2021/01/24 00:18:30;;;;;;;22.27;9.68;;;;;;;;;;4975454;28;20027;-61
2021/01/24 00:20:56;;;;;;;12.77;6.13;;;;;;;;;;4974857;28;20027;-63
2021/01/24 00:23:23;;;;;;;17.80;7.18;;;;;;;;;;4975408;28;20027;-62
2021/01/24 00:25:49;;;;;;;9.77;4.38;;;;;;;;;;4975192;28;20103;-64
2021/01/24 00:28:20;;;;;;;17.38;8.18;;;;;;;;;;4974584;28;20030;-63
2021/01/24 00:30:46;;;;;;;41.38;16.08;;;;;;;;;;4975393;28;20019;-63
2021/01/24 00:33:12;;;;;;;125.70;41.38;;;;;;;;;;4975414;28;20050;-63
2021/01/24 00:35:38;;;;;;;37.03;13.25;;;;;;;;;;4973934;28;20027;-63
2021/01/24 00:38:04;;;;;;;50.65;20.15;;;;;;;;;;4975021;28;20031;-64
2021/01/24 00:40:30;;;;;;;34.05;14.18;;;;;;;;;;4975398;28;20038;-64
2021/01/24 00:42:57;;;;;;;13.38;5.30;;;;;;;;;;4974733;28;20027;-64
2021/01/24 00:45:23;;;;;;;22.05;10.10;;;;;;;;;;4975233;28;20038;-64
2021/01/24 00:47:49;;;;;;;15.93;7.68;;;;;;;;;;4974861;28;20086;-64
2021/01/24 00:50:15;;;;;;;15.07;6.82;;;;;;;;;;4974994;28;20023;-63
2021/01/24 00:52:41;;;;;;;12.75;6.20;;;;;;;;;;4974749;28;20047;-63
2021/01/24 00:55:07;;;;;;;10.32;5.00;;;;;;;;;;4975031;28;20582;-62
2021/01/24 00:57:33;;;;;;;14.45;6.45;;;;;;;;;;4974960;28;20478;-64
2021/01/24 01:00:00;;;;;;;11.95;5.68;;;;;;;;;;4974865;28;20406;-64
2021/01/24 01:02:26;;;;;;;12.63;5.90;;;;;;;;;;4974752;28;20034;-63
2021/01/24 01:04:52;;;;;;;12.40;5.32;;;;;;;;;;4974721;28;20445;-63
2021/01/24 01:07:18;;;;;;;6.90;3.53;;;;;;;;;;4974746;28;20034;-64
2021/01/24 01:09:44;;;;;;;13.23;6.55;;;;;;;;;;4974247;28;20038;-63
2021/01/24 01:12:10;;;;;;;11.20;6.00;;;;;;;;;;4974894;28;20022;-63
2021/01/24 01:14:36;;;;;;;8.75;4.82;;;;;;;;;;4974655;28;20050;-63
2021/01/24 01:17:03;;;;;;;11.75;5.88;;;;;;;;;;4974693;28;20035;-62
2021/01/24 01:19:29;;;;;;;10.75;6.20;;;;;;;;;;4974651;28;20518;-63
2021/01/24 01:21:55;;;;;;;10.77;5.90;;;;;;;;;;4974829;28;20094;-63
2021/01/24 01:24:21;;;;;;;10.65;5.50;;;;;;;;;;4974432;28;20081;-62
2021/01/24 01:26:47;;;;;;;10.45;5.38;;;;;;;;;;4974300;28;20023;-62
2021/01/24 01:29:13;;;;;;;7.38;3.08;;;;;;;;;;4974314;28;20030;-63
2021/01/24 01:31:39;;;;;;;8.32;4.00;;;;;;;;;;4974205;28;20541;-62
2021/01/24 01:34:05;;;;;;;31.77;13.85;;;;;;;;;;4974511;28;20055;-61
2021/01/24 01:36:33;;;;;;;17.77;7.85;;;;;;;;;;4974277;28;20057;-62
2021/01/24 01:38:59;;;;;;;18.65;8.40;;;;;;;;;;4974304;28;20030;-62
2021/01/24 01:41:35;;;;;;;12.30;5.47;;;;;;;;;;4974410;28;20030;-62
2021/01/24 01:44:04;;;;;;;18.52;7.85;;;;;;;;;;4974213;28;20077;-62
2021/01/24 01:46:30;;;;;;;23.83;9.20;;;;;;;;;;4974466;28;20054;-63
2021/01/24 01:48:57;;;;;;;16.38;5.80;;;;;;;;;;4960342;28;20378;-64
2021/01/24 01:51:23;;;;;;;15.57;5.85;;;;;;;;;;4977485;28;20034;-63
2021/01/24 01:53:50;;;;;;;20.50;7.97;;;;;;;;;;4977919;28;20054;-62
2021/01/24 01:56:16;;;;;;;6.88;3.85;;;;;;;;;;4977892;28;20023;-64
2021/01/24 01:58:42;;;;;;;9.88;5.10;;;;;;;;;;4977237;28;20038;-64
2021/01/24 02:01:37;;;;;;;7.30;4.22;;;;;;;;;;4977806;28;20026;-63
2021/01/24 02:04:27;;;;;;;7.07;3.85;;;;;;;;;;4918376;29;20041;-63
2021/01/24 02:06:57;;;;;;;4.05;2.13;;;;;;;;;;4907949;29;20036;-63
2021/01/24 02:09:41;;;;;;;3.92;2.38;;;;;;;;;;4918464;29;20056;-62
2021/01/24 02:12:30;;;;;;;4.78;2.35;;;;;;;;;;4917549;29;20050;-62
2021/01/24 02:15:08;;;;;;;3.80;1.98;;;;;;;;;;4843398;29;20486;-62
2021/01/24 02:17:37;;;;;;;5.93;3.50;;;;;;;;;;4843626;29;20054;-63
2021/01/24 02:20:18;;;;;;;4.82;2.35;;;;;;;;;;4842768;29;20046;-61
2021/01/24 02:22:45;;;;;;;4.57;2.35;;;;;;;;;;4843072;29;20038;-62
2021/01/24 02:25:17;;;;;;;4.03;2.17;;;;;;;;;;4843191;29;20034;-64
2021/01/24 02:27:48;;;;;;;3.85;1.65;;;;;;;;;;4842746;29;20049;-64
2021/01/24 02:30:26;;;;;;;10.98;3.65;;;;;;;;;;4843181;29;20133;-63
2021/01/24 02:32:57;;;;;;;4.22;2.00;;;;;;;;;;4842715;29;20087;-63
2021/01/24 02:35:25;;;;;;;7.30;2.85;;;;;;;;;;4843228;29;20494;-62
2021/01/24 02:37:52;;;;;;;3.88;1.95;;;;;;;;;;4842925;29;20053;-63
2021/01/24 02:40:18;;;;;;;3.60;2.00;;;;;;;;;;4867354;29;20047;-63
2021/01/24 02:42:45;;;;;;;4.00;1.63;;;;;;;;;;4898439;29;20033;-62
2021/01/24 02:45:11;;;;;;;3.22;1.70;;;;;;;;;;4882858;29;20413;-63
2021/01/24 02:47:38;;;;;;;5.97;3.30;;;;;;;;;;4898043;29;20036;-63
2021/01/24 02:50:05;;;;;;;5.10;2.30;;;;;;;;;;4898599;29;20040;-63
2021/01/24 02:52:31;;;;;;;8.13;4.55;;;;;;;;;;4957339;28;20046;-63
2021/01/24 02:54:58;;;;;;;4.93;2.67;;;;;;;;;;4976631;28;20027;-63
2021/01/24 02:57:24;;;;;;;3.97;2.25;;;;;;;;;;4977017;28;20066;-63
2021/01/24 02:59:50;;;;;;;6.57;3.92;;;;;;;;;;4976349;28;20114;-62
2021/01/24 03:02:16;;;;;;;4.65;2.65;;;;;;;;;;4976171;28;20037;-62
2021/01/24 03:04:42;;;;;;;4.22;2.30;;;;;;;;;;4976896;28;20110;-63
2021/01/24 03:07:08;;;;;;;2.97;1.58;;;;;;;;;;4976487;28;20038;-63
2021/01/24 03:09:35;;;;;;;10.23;4.22;;;;;;;;;;4976052;28;20387;-62
2021/01/24 03:12:02;;;;;;;8.68;4.10;;;;;;;;;;4959119;28;20539;-63
2021/01/24 03:14:29;;;;;;;13.57;6.93;;;;;;;;;;4976198;28;20493;-62
2021/01/24 03:16:58;;;;;;;5.45;2.83;;;;;;;;;;4976038;28;20023;-63
2021/01/24 03:19:25;;;;;;;5.30;2.13;;;;;;;;;;4976084;28;20379;-63
2021/01/24 03:21:52;;;;;;;4.45;2.33;;;;;;;;;;4975669;28;20026;-63
2021/01/24 03:24:20;;;;;;;4.03;2.15;;;;;;;;;;4976513;28;20027;-63
2021/01/24 03:26:46;;;;;;;3.58;1.80;;;;;;;;;;4976174;28;20027;-63
2021/01/24 03:29:13;;;;;;;3.13;1.55;;;;;;;;;;4976094;28;20471;-62
2021/01/24 03:31:40;;;;;;;3.90;1.67;;;;;;;;;;4976110;28;20069;-63
2021/01/24 03:34:10;;;;;;;4.35;1.77;;;;;;;;;;4976128;28;20019;-63
2021/01/24 03:36:36;;;;;;;4.22;1.80;;;;;;;;;;4975478;28;20138;-63
2021/01/24 03:39:02;;;;;;;5.25;2.17;;;;;;;;;;4976268;28;20035;-63
2021/01/24 03:41:28;;;;;;;5.07;1.90;;;;;;;;;;4975809;28;20406;-63
2021/01/24 03:43:54;;;;;;;4.40;1.67;;;;;;;;;;4975633;28;20019;-63
2021/01/24 03:46:20;;;;;;;4.88;2.38;;;;;;;;;;4976080;28;20026;-62
2021/01/24 03:48:46;;;;;;;4.47;1.83;;;;;;;;;;4975703;28;20042;-62
2021/01/24 03:51:12;;;;;;;5.80;2.70;;;;;;;;;;4975259;28;20073;-62
2021/01/24 03:53:38;;;;;;;3.72;1.75;;;;;;;;;;4975724;28;20054;-63
2021/01/24 03:56:04;;;;;;;2.95;1.40;;;;;;;;;;4975868;28;20530;-62
2021/01/24 03:58:30;;;;;;;5.38;2.33;;;;;;;;;;4975233;28;20382;-63
2021/01/24 04:00:56;;;;;;;5.90;1.90;;;;;;;;;;4975564;28;20031;-63
2021/01/24 04:03:22;;;;;;;4.07;1.92;;;;;;;;;;4975802;28;20027;-63
2021/01/24 04:05:48;;;;;;;3.70;2.08;;;;;;;;;;4975004;28;20086;-63
2021/01/24 04:08:14;;;;;;;6.38;3.03;;;;;;;;;;4975442;28;20067;-63
2021/01/24 04:10:40;;;;;;;3.97;2.05;;;;;;;;;;4974898;28;20043;-64
2021/01/24 04:13:07;;;;;;;4.32;2.00;;;;;;;;;;4975110;28;20046;-62
2021/01/24 04:15:33;;;;;;;8.82;2.38;;;;;;;;;;4975307;28;20114;-63
2021/01/24 04:17:59;;;;;;;4.38;2.05;;;;;;;;;;4975263;28;20459;-63
2021/01/24 04:20:25;;;;;;;5.93;1.83;;;;;;;;;;4975537;28;20029;-63
2021/01/24 04:22:51;;;;;;;4.95;2.40;;;;;;;;;;4975587;28;20106;-62
2021/01/24 04:25:18;;;;;;;6.65;2.75;;;;;;;;;;4975200;28;20025;-62
2021/01/24 04:27:45;;;;;;;4.97;2.33;;;;;;;;;;4975165;28;20042;-62
2021/01/24 04:30:11;;;;;;;4.30;1.65;;;;;;;;;;4974980;28;20150;-63
2021/01/24 04:32:37;;;;;;;3.53;1.63;;;;;;;;;;4975036;28;20062;-63
2021/01/24 04:35:04;;;;;;;8.20;2.05;;;;;;;;;;4975133;28;20031;-63
2021/01/24 04:37:30;;;;;;;5.22;2.03;;;;;;;;;;4974853;28;20106;-63
2021/01/24 04:39:56;;;;;;;3.88;1.80;;;;;;;;;;4974761;28;20022;-62
2021/01/24 04:42:22;;;;;;;5.53;2.08;;;;;;;;;;4974734;28;20378;-61
2021/01/24 04:44:49;;;;;;;5.00;1.98;;;;;;;;;;4975029;28;20023;-63
2021/01/24 04:47:16;;;;;;;4.05;1.77;;;;;;;;;;4974596;28;20035;-63
2021/01/24 04:49:42;;;;;;;4.18;1.70;;;;;;;;;;4974695;28;20109;-63
2021/01/24 04:52:08;;;;;;;4.93;2.00;;;;;;;;;;4974910;28;20050;-64
2021/01/24 04:54:35;;;;;;;5.55;1.85;;;;;;;;;;4974358;28;20396;-63
2021/01/24 04:57:02;;;;;;;3.30;1.65;;;;;;;;;;4974641;28;20023;-61
2021/01/24 04:59:28;;;;;;;6.72;2.50;;;;;;;;;;4974611;28;20027;-61
2021/01/24 05:01:54;;;;;;;4.45;2.08;;;;;;;;;;4974537;28;20026;-63
2021/01/24 05:04:20;;;;;;;3.83;1.50;;;;;;;;;;4974735;28;20498;-62
2021/01/24 05:06:46;;;;;;;6.65;2.92;;;;;;;;;;4974783;28;20034;-62
2021/01/24 05:09:17;;;;;;;4.97;2.00;;;;;;;;;;4974406;28;20045;-62
2021/01/24 05:11:49;;;;;;;5.05;1.70;;;;;;;;;;4974906;28;20074;-61
2021/01/24 05:14:16;;;;;;;4.00;1.30;;;;;;;;;;4974516;28;20029;-63
2021/01/24 05:16:42;;;;;;;2.70;0.90;;;;;;;;;;4974648;28;20033;-63
2021/01/24 05:19:09;;;;;;;3.60;1.08;;;;;;;;;;4974741;28;20034;-63
2021/01/24 05:21:38;;;;;;;2.85;1.13;;;;;;;;;;4974168;28;20027;-63
2021/01/24 05:24:09;;;;;;;2.80;1.48;;;;;;;;;;4978444;28;20029;-62
2021/01/24 05:26:36;;;;;;;3.38;1.30;;;;;;;;;;4978752;28;20035;-62
2021/01/24 05:29:03;;;;;;;4.07;1.90;;;;;;;;;;4977783;28;20038;-63
2021/01/24 05:31:29;;;;;;;6.68;1.80;;;;;;;;;;4978298;28;20047;-62
2021/01/24 05:33:57;;;;;;;5.15;1.65;;;;;;;;;;4978593;28;20081;-63
2021/01/24 05:36:23;;;;;;;4.43;1.70;;;;;;;;;;4978065;28;20030;-63
2021/01/24 05:38:49;;;;;;;3.17;1.27;;;;;;;;;;4977943;28;20031;-62
2021/01/24 05:41:15;;;;;;;2.60;1.20;;;;;;;;;;4978146;28;20493;-61
2021/01/24 05:43:42;;;;;;;2.92;1.20;;;;;;;;;;4977566;28;20034;-63
2021/01/24 05:46:09;;;;;;;3.38;1.30;;;;;;;;;;4978087;28;20054;-62
2021/01/24 05:48:36;;;;;;;3.50;1.20;;;;;;;;;;4977952;28;20034;-63
2021/01/24 05:51:08;;;;;;;2.70;1.42;;;;;;;;;;4977688;28;20022;-62
2021/01/24 05:53:38;;;;;;;2.88;1.10;;;;;;;;;;4979036;28;20078;-62
2021/01/24 05:56:16;;;;;;;3.88;1.35;;;;;;;;;;4977612;28;20023;-63
2021/01/24 05:58:42;;;;;;;3.58;1.48;;;;;;;;;;4977722;28;20081;-63
2021/01/24 06:01:09;;;;;;;3.25;1.33;;;;;;;;;;4978119;28;20027;-62
2021/01/24 06:03:38;;;;;;;4.47;1.30;;;;;;;;;;4977190;28;20101;-63
2021/01/24 06:06:04;;;;;;;3.05;1.27;;;;;;;;;;4977973;28;20030;-62
2021/01/24 06:08:30;;;;;;;3.75;1.70;;;;;;;;;;4977642;28;20089;-62
2021/01/24 06:10:58;;;;;;;4.63;1.70;;;;;;;;;;4977075;28;20034;-63
2021/01/24 06:13:25;;;;;;;3.92;1.73;;;;;;;;;;4977611;28;20042;-62
2021/01/24 06:15:53;;;;;;;2.63;1.25;;;;;;;;;;4978361;28;20117;-63
2021/01/24 06:18:20;;;;;;;4.00;1.60;;;;;;;;;;4976940;28;20034;-64
2021/01/24 06:20:49;;;;;;;5.60;2.47;;;;;;;;;;4977724;28;20344;-62
2021/01/24 06:23:19;;;;;;;4.28;1.85;;;;;;;;;;4977122;28;20026;-63
2021/01/24 06:25:47;;;;;;;4.80;2.30;;;;;;;;;;4976898;28;20027;-61
2021/01/24 06:28:27;;;;;;;3.65;1.70;;;;;;;;;;4977594;28;20042;-63
2021/01/24 06:30:53;;;;;;;6.28;2.10;;;;;;;;;;4976964;28;20045;-61
2021/01/24 06:33:21;;;;;;;4.78;2.70;;;;;;;;;;4977004;28;20085;-62
2021/01/24 06:35:47;;;;;;;17.08;4.43;;;;;;;;;;4977024;28;20034;-62
2021/01/24 06:38:27;;;;;;;22.70;6.32;;;;;;;;;;4976875;28;20066;-63
2021/01/24 06:40:54;;;;;;;13.30;4.25;;;;;;;;;;4977309;28;20373;-63
2021/01/24 06:43:40;;;;;;;18.40;5.85;;;;;;;;;;4976962;28;20462;-63
2021/01/24 06:46:06;;;;;;;22.02;8.00;;;;;;;;;;4976333;28;20019;-64
2021/01/24 06:48:43;;;;;;;6.25;2.67;;;;;;;;;;4976949;28;20039;-63
2021/01/24 06:51:27;;;;;;;13.70;4.50;;;;;;;;;;4977023;28;20069;-63
2021/01/24 06:53:54;;;;;;;4.97;1.88;;;;;;;;;;4976639;28;20047;-63
2021/01/24 06:56:21;;;;;;;5.35;2.40;;;;;;;;;;4976790;28;20023;-64
2021/01/24 06:58:50;;;;;;;6.65;2.45;;;;;;;;;;4976161;28;20458;-64
2021/01/24 07:01:22;;;;;;;7.85;2.95;;;;;;;;;;4964525;28;20031;-64
2021/01/24 07:04:08;;;;;;;8.23;3.08;;;;;;;;;;4970229;28;20022;-62
2021/01/24 07:06:35;;;;;;;10.55;3.40;;;;;;;;;;4956001;28;20031;-63
2021/01/24 07:09:21;;;;;;;7.75;2.88;;;;;;;;;;4966272;28;20058;-62
2021/01/24 07:11:52;;;;;;;5.75;2.40;;;;;;;;;;4969467;28;20390;-63
2021/01/24 07:14:38;;;;;;;8.15;2.80;;;;;;;;;;4966851;28;20018;-61
2021/01/24 07:17:09;;;;;;;9.75;3.22;;;;;;;;;;4960480;28;20035;-62
2021/01/24 07:19:40;;;;;;;5.43;2.53;;;;;;;;;;4973654;28;20103;-62
2021/01/24 07:22:07;;;;;;;4.78;1.90;;;;;;;;;;4973785;28;20374;-62
2021/01/24 07:24:33;;;;;;;6.10;1.88;;;;;;;;;;4975490;28;20034;-62
2021/01/24 07:26:59;;;;;;;5.13;1.90;;;;;;;;;;4975585;28;20054;-63
2021/01/24 07:29:26;;;;;;;4.03;1.83;;;;;;;;;;4984021;28;20031;-63
2021/01/24 07:31:52;;;;;;;5.30;1.88;;;;;;;;;;4995187;28;20061;-63
2021/01/24 07:34:22;;;;;;;6.93;2.40;;;;;;;;;;4991898;28;20374;-64
2021/01/24 07:36:48;;;;;;;10.57;2.58;;;;;;;;;;4985206;28;20379;-63
2021/01/24 07:39:14;;;;;;;7.35;2.75;;;;;;;;;;4973875;28;20093;-63
2021/01/24 07:41:42;;;;;;;8.07;2.67;;;;;;;;;;4969451;28;20111;-64
2021/01/24 07:44:08;;;;;;;9.20;2.95;;;;;;;;;;4973864;28;20027;-64
2021/01/24 07:46:34;;;;;;;9.90;3.17;;;;;;;;;;4974167;28;20046;-65
2021/01/24 07:49:00;;;;;;;11.10;3.22;;;;;;;;;;4972096;28;20077;-62
2021/01/24 07:51:27;;;;;;;8.82;3.13;;;;;;;;;;4973914;28;20022;-62
2021/01/24 07:53:54;;;;;;;9.00;3.33;;;;;;;;;;4973188;28;20027;-62
2021/01/24 07:56:20;;;;;;;92.18;34.47;;;;;;;;;;4973644;28;20026;-63
2021/01/24 07:58:46;;;;;;;25.17;8.80;;;;;;;;;;4971028;28;20030;-63
2021/01/24 08:01:14;;;;;;;13.98;3.50;;;;;;;;;;4972454;28;20034;-62
2021/01/24 08:03:42;;;;;;;6.82;3.40;;;;;;;;;;4972460;28;20451;-62
2021/01/24 08:06:12;;;;;;;9.18;2.95;;;;;;;;;;4973780;28;20130;-63
2021/01/24 08:08:39;;;;;;;9.80;3.63;;;;;;;;;;4972103;28;20026;-62
2021/01/24 08:11:05;;;;;;;19.15;7.13;;;;;;;;;;4968227;28;20031;-63
2021/01/24 08:13:32;;;;;;;10.88;3.53;;;;;;;;;;4948893;28;20597;-63
2021/01/24 08:15:59;;;;;;;10.18;2.88;;;;;;;;;;4962878;28;20466;-62
2021/01/24 08:18:25;;;;;;;11.70;3.33;;;;;;;;;;4964339;28;20037;-62
2021/01/24 08:20:52;;;;;;;5.15;3.10;;;;;;;;;;4964864;28;20486;-63
2021/01/24 08:23:18;;;;;;;11.88;3.08;;;;;;;;;;4962654;28;20100;-62
2021/01/24 08:25:45;;;;;;;7.95;2.55;;;;;;;;;;4964201;28;20027;-62
2021/01/24 08:28:11;;;;;;;7.00;2.45;;;;;;;;;;4964532;28;20596;-63
2021/01/24 08:30:38;;;;;;;8.88;2.97;;;;;;;;;;4962347;28;20015;-62
2021/01/24 08:33:05;;;;;;;10.50;3.40;;;;;;;;;;4966660;28;20037;-62
2021/01/24 08:35:34;;;;;;;9.27;3.85;;;;;;;;;;4966930;28;20422;-62
2021/01/24 08:38:00;;;;;;;8.45;3.45;;;;;;;;;;4971393;28;20038;-62
2021/01/24 08:40:35;;;;;;;9.38;3.20;;;;;;;;;;4972060;28;20027;-62
2021/01/24 08:43:02;;;;;;;20.98;5.78;;;;;;;;;;4973524;28;20014;-62
2021/01/24 08:45:29;;;;;;;13.00;5.68;;;;;;;;;;4963891;28;20106;-63
2021/01/24 08:47:55;;;;;;;14.95;8.93;;;;;;;;;;4961534;28;20360;-63
2021/01/24 08:50:21;;;;;;;28.17;14.52;;;;;;;;;;4962465;28;20131;-65
2021/01/24 08:52:57;;;;;;;20.80;11.27;;;;;;;;;;4965687;28;20047;-65
2021/01/24 08:55:23;;;;;;;11.60;5.43;;;;;;;;;;4963653;28;20024;-65
2021/01/24 08:57:49;;;;;;;20.50;9.38;;;;;;;;;;4964460;28;20045;-64
2021/01/24 09:00:16;;;;;;;8.23;4.25;;;;;;;;;;4968770;28;20416;-63
2021/01/24 09:02:42;;;;;;;11.57;4.75;;;;;;;;;;4967891;28;20027;-65
2021/01/24 09:05:10;;;;;;;12.32;5.53;;;;;;;;;;4966567;28;20479;-65
2021/01/24 09:07:46;;;;;;;9.23;4.20;;;;;;;;;;4968523;28;20089;-62
2021/01/24 09:10:16;;;;;;;10.93;5.10;;;;;;;;;;4968358;28;20054;-61
2021/01/24 09:12:43;;;;;;;7.35;3.17;;;;;;;;;;4967089;28;20059;-61
2021/01/24 09:15:09;;;;;;;11.63;3.33;;;;;;;;;;4971940;28;20035;-63
2021/01/24 09:17:35;;;;;;;6.43;2.83;;;;;;;;;;4978871;28;20030;-62
2021/01/24 09:20:01;;;;;;;11.95;3.85;;;;;;;;;;4977352;28;20513;-62
2021/01/24 09:22:27;;;;;;;11.82;5.57;;;;;;;;;;4977091;28;20078;-62
2021/01/24 09:24:54;;;;;;;7.97;3.30;;;;;;;;;;4976695;28;20106;-62
2021/01/24 09:27:20;;;;;;;16.98;8.32;;;;;;;;;;4977351;28;20073;-61
2021/01/24 09:29:46;;;;;;;12.88;4.10;;;;;;;;;;4960204;28;20026;-62
2021/01/24 09:32:12;;;;;;;11.70;5.20;;;;;;;;;;4977754;28;20109;-61
2021/01/24 09:34:38;;;;;;;8.73;3.88;;;;;;;;;;4977480;28;20023;-62
2021/01/24 09:37:04;;;;;;;11.48;4.45;;;;;;;;;;4977470;28;20479;-61
2021/01/24 09:39:31;;;;;;;17.70;7.28;;;;;;;;;;4978176;28;20035;-61
2021/01/24 09:41:57;;;;;;;9.98;3.85;;;;;;;;;;4977568;28;20026;-61
2021/01/24 09:44:23;;;;;;;22.23;8.13;;;;;;;;;;4978150;28;20022;-61
2021/01/24 09:46:49;;;;;;;26.98;10.50;;;;;;;;;;4977708;28;20047;-61
2021/01/24 09:49:15;;;;;;;13.45;3.85;;;;;;;;;;4978232;28;20034;-61
2021/01/24 09:51:41;;;;;;;18.85;4.43;;;;;;;;;;4977824;28;20047;-61
2021/01/24 09:54:07;;;;;;;16.30;5.82;;;;;;;;;;4977897;28;20370;-61
2021/01/24 09:56:33;;;;;;;6.32;2.20;;;;;;;;;;4978115;28;20029;-63
2021/01/24 09:58:59;;;;;;;6.53;2.30;;;;;;;;;;4977827;28;20470;-61
2021/01/24 10:01:26;;;;;;;11.00;5.18;;;;;;;;;;4977518;28;20026;-61
2021/01/24 10:03:52;;;;;;;10.50;5.32;;;;;;;;;;4977767;28;20026;-63
2021/01/24 10:06:19;;;;;;;10.90;3.80;;;;;;;;;;4977747;28;20070;-61
2021/01/24 10:08:46;;;;;;;15.55;5.85;;;;;;;;;;4976863;28;20122;-61
2021/01/24 10:11:12;;;;;;;9.70;3.53;;;;;;;;;;4977596;28;20035;-61
2021/01/24 10:13:38;;;;;;;11.20;3.90;;;;;;;;;;4977641;28;20340;-61
2021/01/24 10:16:04;;;;;;;4.90;2.50;;;;;;;;;;4977230;28;20034;-60
2021/01/24 10:18:30;;;;;;;8.15;2.78;;;;;;;;;;4977514;28;20039;-61
2021/01/24 10:20:56;;;;;;;8.43;2.60;;;;;;;;;;4977222;28;20482;-60
2021/01/24 10:23:23;;;;;;;7.15;2.60;;;;;;;;;;4959974;28;20042;-61
2021/01/24 10:25:50;;;;;;;9.57;3.63;;;;;;;;;;4977572;28;20086;-61
2021/01/24 10:28:17;;;;;;;10.80;4.30;;;;;;;;;;4977312;28;20038;-62
2021/01/24 10:30:43;;;;;;;6.35;2.80;;;;;;;;;;4976752;28;20027;-61
2021/01/24 10:33:10;;;;;;;11.82;2.70;;;;;;;;;;4977161;28;20046;-61
2021/01/24 10:35:37;;;;;;;8.27;3.08;;;;;;;;;;4977757;28;20035;-61
2021/01/24 10:38:03;;;;;;;9.57;3.15;;;;;;;;;;4959456;28;20378;-61
2021/01/24 10:40:29;;;;;;;17.13;5.50;;;;;;;;;;4976819;28;20019;-61
2021/01/24 10:42:56;;;;;;;7.85;3.55;;;;;;;;;;4976710;28;20018;-61
2021/01/24 10:45:23;;;;;;;10.15;4.47;;;;;;;;;;4977550;28;20073;-61
2021/01/24 10:47:49;;;;;;;10.07;4.40;;;;;;;;;;4976763;28;20031;-62
2021/01/24 10:50:16;;;;;;;19.92;5.22;;;;;;;;;;4976803;28;20054;-61
2021/01/24 10:52:42;;;;;;;13.85;4.30;;;;;;;;;;4976904;28;20054;-63
2021/01/24 10:55:08;;;;;;;8.88;3.50;;;;;;;;;;4976806;28;20365;-62
2021/01/24 10:57:34;;;;;;;12.63;3.53;;;;;;;;;;4976510;28;20037;-62
2021/01/24 11:00:01;;;;;;;12.35;5.47;;;;;;;;;;4976651;28;20059;-62
2021/01/24 11:02:27;;;;;;;8.52;3.15;;;;;;;;;;4976931;28;20023;-61
2021/01/24 11:04:53;;;;;;;10.30;3.20;;;;;;;;;;4975982;28;20026;-62
2021/01/24 11:07:19;;;;;;;9.25;3.33;;;;;;;;;;4976176;28;20030;-62
2021/01/24 11:09:45;;;;;;;7.30;3.35;;;;;;;;;;4959216;28;20389;-61
2021/01/24 11:12:12;;;;;;;8.63;4.10;;;;;;;;;;4958913;28;20027;-61
2021/01/24 11:14:38;;;;;;;10.93;3.45;;;;;;;;;;4976862;28;20434;-61
2021/01/24 11:17:04;;;;;;;8.73;3.40;;;;;;;;;;4976294;28;20034;-61
2021/01/24 11:19:30;;;;;;;10.93;3.50;;;;;;;;;;4958381;28;20049;-61
2021/01/24 11:21:56;;;;;;;18.08;3.50;;;;;;;;;;4976180;28;20027;-60
2021/01/24 11:24:22;;;;;;;11.48;3.80;;;;;;;;;;4976417;28;20027;-61
2021/01/24 11:26:48;;;;;;;20.67;4.15;;;;;;;;;;4975894;28;20038;-61
2021/01/24 11:29:15;;;;;;;6.60;3.20;;;;;;;;;;4975756;28;20110;-61
2021/01/24 11:31:41;;;;;;;9.10;3.15;;;;;;;;;;4976056;28;20414;-61
2021/01/24 11:34:07;;;;;;;9.95;3.85;;;;;;;;;;4975747;28;20031;-61
2021/01/24 11:36:33;;;;;;;28.42;12.57;;;;;;;;;;4976332;28;20050;-61
2021/01/24 11:38:59;;;;;;;14.30;5.00;;;;;;;;;;4958322;28;20079;-61
2021/01/24 11:41:25;;;;;;;7.70;4.10;;;;;;;;;;4975804;28;20413;-61
2021/01/24 11:43:52;;;;;;;11.88;3.53;;;;;;;;;;4976427;28;20030;-61
2021/01/24 11:46:18;;;;;;;10.15;4.00;;;;;;;;;;4975265;28;20038;-62
2021/01/24 11:48:44;;;;;;;13.38;4.60;;;;;;;;;;4975761;28;20109;-62
2021/01/24 11:51:10;;;;;;;9.45;4.90;;;;;;;;;;4975837;28;20027;-62
2021/01/24 11:53:37;;;;;;;8.48;3.80;;;;;;;;;;4976079;28;20149;-62
2021/01/24 11:56:04;;;;;;;16.85;5.93;;;;;;;;;;4975449;28;20030;-62
2021/01/24 11:58:30;;;;;;;13.60;4.00;;;;;;;;;;4975644;28;20030;-61
2021/01/24 12:00:56;;;;;;;13.50;4.43;;;;;;;;;;4975297;28;20437;-62
2021/01/24 12:03:22;;;;;;;27.58;15.40;;;;;;;;;;4975632;28;20070;-62
2021/01/24 12:05:48;;;;;;;12.27;6.03;;;;;;;;;;4975501;28;20033;-62
2021/01/24 12:08:14;;;;;;;11.15;4.40;;;;;;;;;;4975109;28;20035;-63
2021/01/24 12:10:40;;;;;;;9.10;3.65;;;;;;;;;;4975324;28;20022;-62
2021/01/24 12:13:06;;;;;;;8.25;3.40;;;;;;;;;;4975070;28;20030;-63
2021/01/24 12:15:32;;;;;;;9.32;3.75;;;;;;;;;;4975109;28;20047;-62
2021/01/24 12:17:58;;;;;;;13.52;4.25;;;;;;;;;;4975035;28;20038;-62
2021/01/24 12:20:24;;;;;;;11.10;4.22;;;;;;;;;;4975294;28;20027;-60
2021/01/24 12:22:50;;;;;;;15.23;4.22;;;;;;;;;;4974614;28;20027;-62
2021/01/24 12:25:17;;;;;;;6.68;3.15;;;;;;;;;;4973791;28;20025;-62
2021/01/24 12:27:43;;;;;;;9.82;3.38;;;;;;;;;;4974976;28;20047;-61
2021/01/24 12:30:09;;;;;;;11.57;3.88;;;;;;;;;;4974379;28;20397;-62
2021/01/24 12:32:36;;;;;;;12.10;4.47;;;;;;;;;;4972602;28;20640;-62
2021/01/24 12:35:02;;;;;;;8.93;3.75;;;;;;;;;;4967402;28;20038;-64
2021/01/24 12:37:28;;;;;;;10.25;3.17;;;;;;;;;;4966812;28;20035;-61
2021/01/24 12:39:54;;;;;;;7.88;3.45;;;;;;;;;;4986341;28;20106;-61
2021/01/24 12:42:21;;;;;;;12.27;4.40;;;;;;;;;;4979780;28;20105;-62
2021/01/24 12:44:47;;;;;;;18.42;4.47;;;;;;;;;;4983137;28;20118;-62
2021/01/24 12:47:13;;;;;;;11.35;4.07;;;;;;;;;;4981330;28;20015;-63
2021/01/24 12:49:39;;;;;;;13.05;4.55;;;;;;;;;;4984778;28;20030;-63
2021/01/24 12:52:06;;;;;;;15.05;6.95;;;;;;;;;;4974930;28;20470;-63
2021/01/24 12:54:32;;;;;;;17.17;6.30;;;;;;;;;;4974776;28;20030;-62
2021/01/24 12:56:59;;;;;;;13.13;4.10;;;;;;;;;;4988280;28;20470;-62
2021/01/24 12:59:25;;;;;;;12.70;4.97;;;;;;;;;;4988484;28;20030;-63
2021/01/24 13:01:54;;;;;;;16.20;5.40;;;;;;;;;;4984055;28;20054;-64
2021/01/24 13:04:20;;;;;;;10.57;3.70;;;;;;;;;;4984697;28;20014;-63
2021/01/24 13:06:46;;;;;;;12.05;3.47;;;;;;;;;;4986231;28;20023;-64
2021/01/24 13:09:12;;;;;;;13.80;4.00;;;;;;;;;;4987991;28;20105;-63
2021/01/24 13:11:40;;;;;;;10.05;3.92;;;;;;;;;;4977957;28;20023;-62
2021/01/24 13:14:07;;;;;;;9.27;5.20;;;;;;;;;;4974487;28;20061;-62
2021/01/24 13:16:33;;;;;;;10.27;4.00;;;;;;;;;;4974833;28;20035;-61
2021/01/24 13:18:59;;;;;;;11.88;5.90;;;;;;;;;;4973696;28;20034;-62
2021/01/24 13:21:26;;;;;;;13.95;5.07;;;;;;;;;;4974370;28;20105;-62
2021/01/24 13:23:53;;;;;;;12.35;5.25;;;;;;;;;;4973900;28;20102;-62
2021/01/24 13:26:19;;;;;;;13.43;4.85;;;;;;;;;;4971113;28;20118;-61
2021/01/24 13:28:45;;;;;;;15.57;6.07;;;;;;;;;;4966601;28;20031;-61
2021/01/24 13:31:11;;;;;;;12.00;5.45;;;;;;;;;;4963436;28;20031;-61
2021/01/24 13:33:37;;;;;;;14.77;6.90;;;;;;;;;;4974812;28;20026;-61
2021/01/24 13:36:04;;;;;;;12.35;5.75;;;;;;;;;;4974759;28;20030;-62
2021/01/24 13:38:30;;;;;;;11.10;5.13;;;;;;;;;;4982712;28;20050;-61
2021/01/24 13:40:57;;;;;;;12.70;5.80;;;;;;;;;;4982550;28;20027;-64
2021/01/24 13:43:26;;;;;;;10.82;5.63;;;;;;;;;;4987235;28;20025;-63
2021/01/24 13:45:53;;;;;;;13.02;5.65;;;;;;;;;;4986224;28;20121;-62
2021/01/24 13:48:19;;;;;;;12.48;5.93;;;;;;;;;;4977362;28;20031;-62
2021/01/24 13:50:47;;;;;;;12.00;6.45;;;;;;;;;;4980186;28;20027;-62
2021/01/24 13:53:16;;;;;;;14.80;6.47;;;;;;;;;;4977186;28;20051;-66
2021/01/24 13:55:42;;;;;;;22.13;6.53;;;;;;;;;;4977212;28;20551;-61
2021/01/24 13:58:08;;;;;;;16.67;6.53;;;;;;;;;;4976687;28;20031;-62
2021/01/24 14:00:34;;;;;;;13.98;6.70;;;;;;;;;;4975848;28;20034;-61
2021/01/24 14:03:00;;;;;;;15.85;7.70;;;;;;;;;;4976085;28;20019;-60
2021/01/24 14:05:26;;;;;;;15.35;6.88;;;;;;;;;;4976475;28;20027;-62
2021/01/24 14:07:52;;;;;;;13.85;6.90;;;;;;;;;;4976132;28;20039;-62
2021/01/24 14:10:18;;;;;;;21.42;8.65;;;;;;;;;;4973042;28;20525;-62
2021/01/24 14:12:46;;;;;;;19.27;8.45;;;;;;;;;;4975086;28;20073;-63
2021/01/24 14:15:12;;;;;;;17.35;8.48;;;;;;;;;;4974703;28;20034;-60
2021/01/24 14:17:39;;;;;;;18.52;8.77;;;;;;;;;;4972860;28;20034;-62
2021/01/24 14:20:06;;;;;;;16.83;9.07;;;;;;;;;;4969774;28;20485;-63
2021/01/24 14:22:32;;;;;;;18.10;9.27;;;;;;;;;;4967174;28;20038;-62
2021/01/24 14:24:58;;;;;;;19.05;10.35;;;;;;;;;;4974818;28;20351;-61
2021/01/24 14:27:24;;;;;;;25.55;11.43;;;;;;;;;;4966297;28;20463;-62
2021/01/24 14:29:50;;;;;;;24.40;11.25;;;;;;;;;;4986312;28;20109;-62
2021/01/24 14:32:16;;;;;;;23.92;11.10;;;;;;;;;;4978229;28;20469;-62
2021/01/24 14:34:43;;;;;;;23.95;11.20;;;;;;;;;;4977072;28;20499;-62
2021/01/24 14:37:09;;;;;;;22.75;10.50;;;;;;;;;;4976612;28;20027;-62